createdAt,value
2022-12-08T00:00:52.497Z,0.00
2022-12-08T00:01:52.589Z,0.00
2022-12-08T00:02:52.616Z,0.00
2022-12-08T00:03:52.453Z,0.00
2022-12-08T00:04:52.444Z,0.00
2022-12-08T00:05:52.434Z,0.00
2022-12-08T00:06:52.463Z,0.00
2022-12-08T00:07:52.492Z,0.00
2022-12-08T00:08:52.404Z,0.00
2022-12-08T00:09:52.383Z,0.00
2022-12-08T00:10:52.393Z,0.00
2022-12-08T00:11:52.362Z,0.00
2022-12-08T00:12:52.370Z,0.00
2022-12-08T00:13:52.342Z,0.00
2022-12-08T00:14:52.350Z,0.00
2022-12-08T00:15:52.322Z,0.00
2022-12-08T00:16:52.425Z,0.00
2022-12-08T00:17:52.300Z,0.00
2022-12-08T00:18:52.304Z,0.00
2022-12-08T00:19:52.321Z,0.00
2022-12-08T00:20:52.271Z,0.00
2022-12-08T00:21:52.262Z,0.00
2022-12-08T00:22:52.258Z,0.00
2022-12-08T00:23:52.239Z,0.00
2022-12-08T00:24:52.231Z,0.00
2022-12-08T00:25:52.257Z,0.00
2022-12-08T00:26:52.211Z,0.00
2022-12-08T00:27:52.190Z,0.00
2022-12-08T00:28:52.192Z,0.00
2022-12-08T00:29:52.169Z,0.00
2022-12-08T00:30:52.165Z,0.00
2022-12-08T00:31:52.213Z,0.00
2022-12-08T00:32:52.140Z,0.00
2022-12-08T00:33:52.127Z,0.00
2022-12-08T00:34:52.119Z,0.00
2022-12-08T00:35:52.110Z,0.00
2022-12-08T00:36:52.169Z,0.00
2022-12-08T00:37:56.123Z,0.00
2022-12-08T00:38:53.231Z,0.00
2022-12-08T00:39:52.140Z,0.00
2022-12-08T00:40:52.109Z,0.00
2022-12-08T00:41:52.089Z,0.00
2022-12-08T00:42:52.096Z,0.00
2022-12-08T00:43:52.091Z,0.00
2022-12-08T00:44:52.072Z,0.00
2022-12-08T00:45:52.119Z,0.00
2022-12-08T00:46:52.037Z,0.00
2022-12-08T00:47:52.039Z,0.00
2022-12-08T00:48:52.041Z,0.00
2022-12-08T00:49:52.017Z,0.00
2022-12-08T00:50:52.051Z,0.00
2022-12-08T00:51:51.966Z,0.00
2022-12-08T00:52:51.968Z,0.00
2022-12-08T00:53:51.937Z,0.00
2022-12-08T00:54:52.014Z,0.00
2022-12-08T00:55:51.948Z,0.00
2022-12-08T00:56:51.967Z,0.00
2022-12-08T00:57:51.905Z,0.00
2022-12-08T00:58:51.917Z,0.00
2022-12-08T00:59:51.854Z,0.00
2022-12-08T01:00:51.863Z,0.00
2022-12-08T01:01:51.829Z,0.00
2022-12-08T01:02:51.865Z,0.00
2022-12-08T01:03:51.860Z,0.00
2022-12-08T01:04:51.813Z,0.00
2022-12-08T01:05:51.781Z,0.00
2022-12-08T01:06:51.789Z,0.00
2022-12-08T01:07:51.928Z,0.00
2022-12-08T01:08:51.842Z,0.00
2022-12-08T01:09:51.795Z,0.00
2022-12-08T01:10:51.805Z,0.00
2022-12-08T01:11:51.784Z,0.00
2022-12-08T01:12:51.824Z,0.00
2022-12-08T01:13:51.800Z,0.00
2022-12-08T01:14:51.764Z,0.00
2022-12-08T01:15:51.722Z,0.00
2022-12-08T01:16:51.786Z,0.00
2022-12-08T01:17:51.723Z,0.00
2022-12-08T01:18:51.734Z,0.00
2022-12-08T01:19:51.689Z,0.00
2022-12-08T01:20:51.652Z,0.00
2022-12-08T01:21:51.633Z,0.00
2022-12-08T01:22:51.654Z,0.00
2022-12-08T01:23:51.691Z,0.00
2022-12-08T01:24:51.612Z,0.00
2022-12-08T01:25:51.625Z,0.00
2022-12-08T01:26:51.585Z,0.00
2022-12-08T01:27:51.562Z,0.00
2022-12-08T01:28:51.662Z,0.00
2022-12-08T01:29:51.539Z,0.00
2022-12-08T01:30:51.550Z,0.00
2022-12-08T01:31:51.512Z,0.00
2022-12-08T01:32:51.562Z,0.00
2022-12-08T01:33:51.490Z,0.00
2022-12-08T01:34:51.500Z,0.00
2022-12-08T01:35:51.480Z,0.00
2022-12-08T01:36:51.467Z,0.00
2022-12-08T01:37:51.447Z,0.00
2022-12-08T01:38:51.430Z,0.00
2022-12-08T01:39:51.452Z,0.00
2022-12-08T01:40:51.431Z,0.00
2022-12-08T01:41:51.400Z,0.00
2022-12-08T01:42:51.398Z,0.00
2022-12-08T01:43:51.378Z,0.00
2022-12-08T01:44:51.380Z,0.00
2022-12-08T01:45:51.471Z,0.00
2022-12-08T01:46:51.349Z,0.00
2022-12-08T01:47:51.390Z,0.00
2022-12-08T01:48:51.339Z,0.00
2022-12-08T01:49:51.349Z,0.00
2022-12-08T01:50:58.017Z,0.00
2022-12-08T01:51:51.296Z,0.00
2022-12-08T01:52:51.298Z,0.00
2022-12-08T01:53:51.405Z,0.00
2022-12-08T01:54:51.353Z,0.00
2022-12-08T01:55:55.084Z,0.00
2022-12-08T01:56:51.266Z,0.00
2022-12-08T01:57:51.233Z,0.00
2022-12-08T01:58:51.238Z,0.00
2022-12-08T01:59:51.211Z,0.00
2022-12-08T02:00:51.218Z,0.00
2022-12-08T02:01:51.247Z,0.00
2022-12-08T02:02:51.307Z,0.00
2022-12-08T02:03:51.168Z,0.00
2022-12-08T02:04:51.166Z,0.00
2022-12-08T02:05:51.146Z,0.00
2022-12-08T02:06:51.137Z,0.00
2022-12-08T02:07:51.213Z,0.00
2022-12-08T02:08:51.116Z,0.00
2022-12-08T02:09:51.154Z,0.00
2022-12-08T02:10:51.147Z,0.00
2022-12-08T02:11:51.084Z,0.00
2022-12-08T02:12:51.074Z,0.00
2022-12-08T02:13:51.066Z,0.00
2022-12-08T02:14:51.058Z,0.00
2022-12-08T02:15:51.087Z,0.00
2022-12-08T02:16:51.024Z,0.00
2022-12-08T02:17:51.015Z,0.00
2022-12-08T02:19:14.782Z,0.00
2022-12-08T02:19:51.995Z,0.00
2022-12-08T02:20:50.983Z,0.00
2022-12-08T02:21:50.974Z,0.00
2022-12-08T02:22:50.963Z,0.00
2022-12-08T02:23:50.944Z,0.00
2022-12-08T02:24:50.953Z,0.00
2022-12-08T02:25:50.933Z,0.00
2022-12-08T02:26:50.934Z,0.00
2022-12-08T02:27:50.924Z,0.00
2022-12-08T02:28:50.978Z,0.00
2022-12-08T02:29:50.885Z,0.00
2022-12-08T02:30:51.001Z,0.00
2022-12-08T02:31:50.852Z,0.00
2022-12-08T02:32:50.856Z,0.00
2022-12-08T02:33:50.941Z,0.00
2022-12-08T02:34:50.833Z,0.00
2022-12-08T02:35:50.815Z,0.00
2022-12-08T02:36:50.831Z,0.00
2022-12-08T02:37:50.811Z,0.00
2022-12-08T02:38:50.781Z,0.00
2022-12-08T02:39:50.804Z,0.00
2022-12-08T02:40:50.948Z,0.00
2022-12-08T02:41:50.810Z,0.00
2022-12-08T02:42:50.782Z,0.00
2022-12-08T02:43:50.780Z,0.00
2022-12-08T02:44:50.750Z,0.00
2022-12-08T02:45:50.742Z,0.00
2022-12-08T02:46:50.703Z,0.00
2022-12-08T02:47:50.689Z,0.00
2022-12-08T02:48:50.702Z,0.00
2022-12-08T02:49:50.680Z,0.00
2022-12-08T02:50:50.752Z,0.00
2022-12-08T02:51:50.698Z,0.00
2022-12-08T02:52:50.708Z,0.00
2022-12-08T02:53:50.693Z,0.00
2022-12-08T02:54:50.695Z,0.00
2022-12-08T02:55:50.690Z,0.00
2022-12-08T02:56:50.669Z,0.00
2022-12-08T02:57:50.647Z,0.00
2022-12-08T02:58:50.647Z,0.00
2022-12-08T02:59:50.637Z,0.00
2022-12-08T03:00:50.623Z,0.00
2022-12-08T03:01:50.662Z,0.00
2022-12-08T03:02:50.633Z,0.00
2022-12-08T03:03:50.648Z,0.00
2022-12-08T03:04:50.677Z,0.00
2022-12-08T03:05:50.558Z,0.00
2022-12-08T03:06:50.544Z,0.00
2022-12-08T03:07:50.590Z,0.00
2022-12-08T03:08:50.520Z,0.00
2022-12-08T03:09:50.494Z,0.00
2022-12-08T03:10:50.467Z,0.00
2022-12-08T03:11:50.453Z,0.00
2022-12-08T03:12:50.436Z,0.00
2022-12-08T03:13:50.420Z,0.00
2022-12-08T03:14:50.416Z,0.00
2022-12-08T03:15:50.450Z,0.00
2022-12-08T03:16:50.395Z,0.00
2022-12-08T03:17:50.385Z,0.00
2022-12-08T03:18:50.375Z,0.00
2022-12-08T03:19:50.365Z,0.00
2022-12-08T03:20:50.354Z,0.00
2022-12-08T03:21:50.344Z,0.00
2022-12-08T03:22:50.334Z,0.00
2022-12-08T03:23:50.464Z,0.00
2022-12-08T03:24:50.315Z,0.00
2022-12-08T03:25:50.295Z,0.00
2022-12-08T03:26:50.294Z,0.00
2022-12-08T03:27:50.282Z,0.00
2022-12-08T03:28:50.696Z,0.00
2022-12-08T03:29:50.253Z,0.00
2022-12-08T03:30:50.274Z,0.00
2022-12-08T03:31:50.223Z,0.00
2022-12-08T03:32:50.213Z,0.00
2022-12-08T03:33:50.201Z,0.00
2022-12-08T03:34:50.200Z,0.00
2022-12-08T03:35:50.184Z,0.00
2022-12-08T03:36:50.170Z,0.00
2022-12-08T03:37:50.172Z,0.00
2022-12-08T03:38:50.148Z,0.00
2022-12-08T03:39:50.134Z,0.00
2022-12-08T03:40:50.142Z,0.00
2022-12-08T03:41:50.112Z,0.00
2022-12-08T03:42:50.101Z,0.00
2022-12-08T03:43:50.089Z,0.00
2022-12-08T03:44:50.081Z,0.00
2022-12-08T03:45:50.071Z,0.00
2022-12-08T03:46:50.071Z,0.00
2022-12-08T03:47:50.052Z,0.00
2022-12-08T03:48:50.040Z,0.00
2022-12-08T03:49:50.051Z,0.00
2022-12-08T03:50:50.030Z,0.00
2022-12-08T03:51:50.001Z,0.00
2022-12-08T03:52:50.001Z,0.00
2022-12-08T03:53:49.998Z,0.00
2022-12-08T03:54:49.982Z,0.00
2022-12-08T03:55:49.990Z,0.00
2022-12-08T03:56:49.962Z,0.00
2022-12-08T03:57:49.940Z,0.00
2022-12-08T03:58:49.939Z,0.00
2022-12-08T03:59:49.957Z,0.00
2022-12-08T04:00:49.935Z,0.00
2022-12-08T04:01:49.923Z,0.00
2022-12-08T04:02:49.972Z,0.00
2022-12-08T04:03:49.882Z,0.00
2022-12-08T04:04:49.871Z,0.00
2022-12-08T04:05:49.880Z,0.00
2022-12-08T04:06:49.848Z,0.00
2022-12-08T04:07:49.849Z,0.00
2022-12-08T04:08:49.839Z,0.00
2022-12-08T04:09:49.817Z,0.00
2022-12-08T04:10:49.808Z,0.00
2022-12-08T04:11:49.798Z,0.00
2022-12-08T04:12:49.788Z,0.00
2022-12-08T04:13:49.770Z,0.00
2022-12-08T04:14:49.781Z,0.00
2022-12-08T04:15:49.780Z,0.00
2022-12-08T04:16:49.751Z,0.00
2022-12-08T04:17:49.863Z,0.00
2022-12-08T04:18:49.788Z,0.00
2022-12-08T04:19:49.750Z,0.00
2022-12-08T04:20:49.739Z,0.00
2022-12-08T04:21:49.719Z,0.00
2022-12-08T04:22:49.699Z,0.00
2022-12-08T04:23:49.704Z,0.00
2022-12-08T04:24:49.679Z,0.00
2022-12-08T04:25:49.677Z,0.00
2022-12-08T04:26:49.668Z,0.00
2022-12-08T04:27:49.654Z,0.00
2022-12-08T04:28:49.791Z,0.00
2022-12-08T04:29:49.650Z,0.00
2022-12-08T04:30:49.619Z,0.00
2022-12-08T04:31:49.688Z,0.00
2022-12-08T04:32:49.624Z,0.00
2022-12-08T04:33:49.596Z,0.00
2022-12-08T04:34:49.565Z,0.00
2022-12-08T04:35:49.555Z,0.00
2022-12-08T04:36:49.534Z,0.00
2022-12-08T04:37:49.514Z,0.00
2022-12-08T04:38:49.552Z,0.00
2022-12-08T04:39:49.504Z,0.00
2022-12-08T04:40:49.553Z,0.00
2022-12-08T04:41:49.554Z,0.00
2022-12-08T04:42:49.562Z,0.00
2022-12-08T04:43:49.493Z,0.00
2022-12-08T04:44:49.504Z,0.00
2022-12-08T04:45:49.495Z,0.00
2022-12-08T04:46:49.648Z,0.00
2022-12-08T04:47:49.440Z,0.00
2022-12-08T04:48:49.818Z,0.00
2022-12-08T04:49:49.422Z,0.00
2022-12-08T04:50:49.424Z,0.00
2022-12-08T04:51:49.411Z,0.00
2022-12-08T04:52:49.408Z,0.00
2022-12-08T04:53:49.366Z,0.00
2022-12-08T04:54:49.415Z,0.00
2022-12-08T04:55:49.349Z,0.00
2022-12-08T04:56:49.438Z,0.00
2022-12-08T04:57:49.461Z,0.00
2022-12-08T04:58:49.626Z,0.00
2022-12-08T04:59:49.505Z,0.00
2022-12-08T05:00:49.290Z,0.00
2022-12-08T05:01:49.435Z,0.00
2022-12-08T05:02:49.343Z,0.00
2022-12-08T05:03:49.395Z,0.00
2022-12-08T05:04:49.320Z,0.00
2022-12-08T05:05:49.281Z,0.00
2022-12-08T05:06:49.270Z,0.00
2022-12-08T05:07:49.270Z,0.00
2022-12-08T05:08:49.320Z,0.00
2022-12-08T05:09:49.312Z,0.00
2022-12-08T05:10:49.270Z,0.00
2022-12-08T05:11:49.470Z,0.00
2022-12-08T05:12:49.168Z,0.00
2022-12-08T05:13:49.178Z,0.00
2022-12-08T05:14:49.181Z,0.00
2022-12-08T05:15:49.246Z,0.00
2022-12-08T05:16:49.220Z,0.00
2022-12-08T05:17:49.172Z,0.00
2022-12-08T05:18:49.112Z,0.00
2022-12-08T05:19:49.078Z,0.00
2022-12-08T05:20:49.089Z,0.00
2022-12-08T05:21:49.057Z,0.00
2022-12-08T05:22:49.086Z,0.00
2022-12-08T05:23:49.055Z,0.00
2022-12-08T05:24:49.041Z,0.00
2022-12-08T05:25:49.016Z,0.00
2022-12-08T05:26:49.018Z,0.00
2022-12-08T05:27:49.012Z,0.00
2022-12-08T05:28:49.020Z,0.00
2022-12-08T05:29:48.973Z,0.00
2022-12-08T05:30:48.965Z,0.00
2022-12-08T05:31:49.017Z,0.00
2022-12-08T05:32:48.956Z,0.00
2022-12-08T05:33:48.933Z,0.00
2022-12-08T05:34:48.934Z,0.00
2022-12-08T05:35:48.955Z,0.00
2022-12-08T05:36:48.994Z,0.00
2022-12-08T05:37:48.965Z,0.00
2022-12-08T05:38:48.915Z,0.00
2022-12-08T05:39:48.917Z,0.00
2022-12-08T05:40:48.885Z,0.00
2022-12-08T05:41:48.934Z,0.00
2022-12-08T05:42:48.924Z,0.00
2022-12-08T05:43:48.894Z,0.00
2022-12-08T05:44:48.881Z,0.00
2022-12-08T05:45:48.928Z,0.00
2022-12-08T05:46:48.853Z,0.00
2022-12-08T05:47:48.847Z,0.00
2022-12-08T05:48:48.902Z,0.00
2022-12-08T05:49:48.813Z,0.00
2022-12-08T05:50:48.831Z,0.00
2022-12-08T05:51:48.785Z,0.00
2022-12-08T05:52:48.813Z,0.00
2022-12-08T05:53:48.775Z,0.00
2022-12-08T05:54:48.766Z,0.00
2022-12-08T05:55:48.784Z,0.00
2022-12-08T05:56:48.756Z,0.00
2022-12-08T05:57:48.754Z,0.00
2022-12-08T05:58:48.712Z,0.00
2022-12-08T05:59:48.760Z,0.00
2022-12-08T06:00:48.763Z,0.00
2022-12-08T06:01:48.746Z,0.00
2022-12-08T06:02:48.766Z,0.00
2022-12-08T06:03:48.673Z,0.00
2022-12-08T06:04:48.737Z,0.00
2022-12-08T06:05:48.665Z,0.00
2022-12-08T06:06:48.619Z,0.00
2022-12-08T06:07:48.700Z,0.00
2022-12-08T06:08:48.600Z,0.00
2022-12-08T06:09:48.595Z,0.00
2022-12-08T06:10:48.580Z,0.00
2022-12-08T06:11:48.604Z,0.00
2022-12-08T06:12:48.560Z,0.00
2022-12-08T06:13:48.632Z,0.00
2022-12-08T06:14:48.552Z,0.00
2022-12-08T06:15:48.553Z,0.00
2022-12-08T06:16:48.619Z,0.00
2022-12-08T06:17:48.643Z,0.00
2022-12-08T06:18:48.560Z,0.00
2022-12-08T06:19:48.722Z,0.00
2022-12-08T06:20:48.518Z,0.00
2022-12-08T06:21:48.498Z,0.00
2022-12-08T06:22:48.487Z,0.00
2022-12-08T06:23:48.590Z,0.00
2022-12-08T06:24:48.432Z,0.00
2022-12-08T06:25:48.712Z,0.00
2022-12-08T06:26:48.451Z,0.00
2022-12-08T06:27:48.455Z,0.00
2022-12-08T06:28:48.581Z,0.00
2022-12-08T06:29:48.423Z,0.00
2022-12-08T06:30:48.435Z,0.00
2022-12-08T06:31:48.912Z,0.00
2022-12-08T06:32:48.430Z,0.00
2022-12-08T06:33:48.445Z,0.00
2022-12-08T06:34:48.387Z,0.00
2022-12-08T06:35:48.367Z,0.00
2022-12-08T06:36:48.414Z,0.00
2022-12-08T06:37:48.366Z,0.00
2022-12-08T06:38:48.315Z,0.00
2022-12-08T06:39:49.207Z,0.00
2022-12-08T06:40:48.266Z,0.00
2022-12-08T06:41:48.251Z,0.00
2022-12-08T06:42:48.225Z,0.00
2022-12-08T06:43:48.287Z,0.00
2022-12-08T06:44:48.176Z,0.00
2022-12-08T06:45:48.283Z,0.00
2022-12-08T06:46:48.164Z,0.00
2022-12-08T06:47:48.145Z,0.00
2022-12-08T06:48:48.133Z,0.00
2022-12-08T06:49:48.125Z,0.00
2022-12-08T06:50:48.134Z,0.00
2022-12-08T06:51:48.047Z,1.00
2022-12-08T06:52:59.515Z,1.00
2022-12-08T06:53:49.044Z,1.00
2022-12-08T06:54:48.018Z,1.00
2022-12-08T06:56:03.329Z,2.00
2022-12-08T06:56:48.994Z,2.00
2022-12-08T06:57:47.983Z,1.00
2022-12-08T06:58:52.480Z,2.00
2022-12-08T06:59:47.963Z,1.00
2022-12-08T07:00:47.995Z,5.00
2022-12-08T07:01:48.093Z,4.00
2022-12-08T07:02:47.962Z,2.00
2022-12-08T07:03:47.984Z,1.00
2022-12-08T07:04:47.931Z,4.00
2022-12-08T07:05:47.951Z,2.00
2022-12-08T07:06:47.887Z,11.00
2022-12-08T07:07:47.895Z,17.00
2022-12-08T07:08:47.874Z,19.00
2022-12-08T07:09:47.889Z,15.00
2022-12-08T07:10:47.894Z,19.00
2022-12-08T07:11:47.865Z,22.00
2022-12-08T07:12:47.819Z,20.00
2022-12-08T07:13:47.938Z,34.00
2022-12-08T07:14:47.806Z,20.00
2022-12-08T07:15:47.803Z,27.00
2022-12-08T07:16:47.830Z,38.00
2022-12-08T07:17:47.780Z,39.00
2022-12-08T07:18:47.765Z,33.00
2022-12-08T07:19:47.767Z,41.00
2022-12-08T07:20:47.737Z,49.00
2022-12-08T07:21:47.741Z,53.00
2022-12-08T07:22:47.726Z,58.00
2022-12-08T07:23:50.194Z,66.00
2022-12-08T07:24:48.718Z,78.00
2022-12-08T07:25:47.711Z,86.00
2022-12-08T07:26:47.669Z,87.00
2022-12-08T07:27:47.669Z,94.00
2022-12-08T07:28:47.661Z,101.00
2022-12-08T07:29:47.691Z,98.00
2022-12-08T07:30:47.638Z,100.00
2022-12-08T07:31:47.638Z,110.00
2022-12-08T07:32:47.612Z,114.00
2022-12-08T07:33:47.622Z,124.00
2022-12-08T07:34:47.639Z,130.00
2022-12-08T07:35:49.397Z,139.00
2022-12-08T07:36:47.576Z,131.00
2022-12-08T07:37:47.558Z,157.00
2022-12-08T07:38:47.547Z,182.00
2022-12-08T07:39:48.352Z,197.00
2022-12-08T07:40:47.615Z,204.00
2022-12-08T07:41:47.566Z,203.00
2022-12-08T07:42:47.516Z,216.00
2022-12-08T07:43:47.495Z,252.00
2022-12-08T07:44:47.475Z,232.00
2022-12-08T07:45:47.527Z,210.00
2022-12-08T07:46:47.457Z,211.00
2022-12-08T07:47:47.453Z,256.00
2022-12-08T07:48:47.446Z,287.00
2022-12-08T07:49:47.438Z,290.00
2022-12-08T07:50:47.424Z,278.00
2022-12-08T07:51:47.406Z,242.00
2022-12-08T07:52:47.393Z,260.00
2022-12-08T07:53:53.489Z,273.00
2022-12-08T07:54:48.386Z,237.00
2022-12-08T07:55:47.364Z,416.00
2022-12-08T07:56:47.374Z,316.00
2022-12-08T07:57:47.343Z,368.00
2022-12-08T07:58:47.357Z,478.00
2022-12-08T07:59:47.334Z,425.00
2022-12-08T08:00:47.363Z,313.00
2022-12-08T08:01:56.229Z,404.00
2022-12-08T08:02:48.359Z,394.00
2022-12-08T08:03:47.283Z,442.00
2022-12-08T08:04:47.331Z,372.00
2022-12-08T08:05:47.252Z,369.00
2022-12-08T08:06:47.243Z,432.00
2022-12-08T08:07:47.274Z,469.00
2022-12-08T08:08:47.231Z,467.00
2022-12-08T08:09:47.265Z,549.00
2022-12-08T08:10:47.205Z,489.00
2022-12-08T08:12:07.262Z,487.00
2022-12-08T08:12:48.184Z,590.00
2022-12-08T08:13:47.173Z,580.00
2022-12-08T08:14:47.172Z,673.00
2022-12-08T08:15:47.261Z,714.00
2022-12-08T08:16:47.228Z,764.00
2022-12-08T08:17:47.132Z,766.00
2022-12-08T08:18:47.121Z,685.00
2022-12-08T08:19:47.112Z,685.00
2022-12-08T08:20:47.092Z,728.00
2022-12-08T08:21:47.101Z,533.00
2022-12-08T08:22:47.102Z,744.00
2022-12-08T08:23:47.080Z,742.00
2022-12-08T08:24:47.060Z,920.00
2022-12-08T08:25:47.060Z,985.00
2022-12-08T08:26:47.039Z,986.00
2022-12-08T08:27:47.034Z,974.00
2022-12-08T08:28:47.181Z,1040.00
2022-12-08T08:29:47.019Z,1092.00
2022-12-08T08:30:47.019Z,1006.00
2022-12-08T08:31:46.983Z,1011.00
2022-12-08T08:32:46.972Z,1039.00
2022-12-08T08:33:46.969Z,1030.00
2022-12-08T08:34:46.961Z,1049.00
2022-12-08T08:35:46.951Z,1090.00
2022-12-08T08:36:47.007Z,1051.00
2022-12-08T08:37:49.164Z,1195.00
2022-12-08T08:38:46.909Z,1229.00
2022-12-08T08:39:46.917Z,1264.00
2022-12-08T08:40:46.899Z,1359.00
2022-12-08T08:41:46.890Z,1289.00
2022-12-08T08:42:46.867Z,1297.00
2022-12-08T08:43:46.867Z,1322.00
2022-12-08T08:44:46.858Z,1367.00
2022-12-08T08:45:46.843Z,1447.00
2022-12-08T08:46:46.882Z,1507.00
2022-12-08T08:47:46.816Z,1454.00
2022-12-08T08:48:46.832Z,1525.00
2022-12-08T08:49:46.837Z,1670.00
2022-12-08T08:50:46.787Z,1820.00
2022-12-08T08:51:46.800Z,1820.00
2022-12-08T08:52:46.766Z,1717.00
2022-12-08T08:53:46.765Z,1540.00
2022-12-08T08:54:46.767Z,1418.00
2022-12-08T08:55:46.741Z,1345.00
2022-12-08T08:56:46.735Z,1421.00
2022-12-08T08:57:46.757Z,1442.00
2022-12-08T08:58:46.718Z,1489.00
2022-12-08T08:59:46.697Z,1481.00
2022-12-08T09:00:46.689Z,1494.00
2022-12-08T09:01:46.741Z,1414.00
2022-12-08T09:02:46.656Z,1323.00
2022-12-08T09:03:46.669Z,1344.00
2022-12-08T09:04:46.691Z,1282.00
2022-12-08T09:05:46.824Z,1385.00
2022-12-08T09:06:46.614Z,1310.00
2022-12-08T09:07:46.721Z,1361.00
2022-12-08T09:08:46.660Z,1469.00
2022-12-08T09:09:46.610Z,1481.00
2022-12-08T09:10:46.589Z,1182.00
2022-12-08T09:11:46.640Z,1486.00
2022-12-08T09:12:46.546Z,1514.00
2022-12-08T09:13:46.603Z,1362.00
2022-12-08T09:14:46.547Z,1415.00
2022-12-08T09:15:46.558Z,1398.00
2022-12-08T09:16:46.570Z,1263.00
2022-12-08T09:17:46.517Z,1097.00
2022-12-08T09:18:46.526Z,1610.00
2022-12-08T09:19:46.482Z,1719.00
2022-12-08T09:20:46.472Z,1610.00
2022-12-08T09:21:46.472Z,1623.00
2022-12-08T09:22:46.581Z,1452.00
2022-12-08T09:23:46.444Z,1349.00
2022-12-08T09:24:46.435Z,1439.00
2022-12-08T09:25:46.431Z,1393.00
2022-12-08T09:26:46.420Z,1346.00
2022-12-08T09:27:46.421Z,1348.00
2022-12-08T09:28:46.429Z,1382.00
2022-12-08T09:29:46.405Z,1276.00
2022-12-08T09:30:46.369Z,1239.00
2022-12-08T09:31:46.513Z,1693.00
2022-12-08T09:32:46.381Z,1676.00
2022-12-08T09:33:46.346Z,1653.00
2022-12-08T09:34:51.768Z,1381.00
2022-12-08T09:35:47.322Z,1801.00
2022-12-08T09:36:46.303Z,1888.00
2022-12-08T09:37:46.293Z,1370.00
2022-12-08T09:38:46.383Z,1744.00
2022-12-08T09:39:46.353Z,1818.00
2022-12-08T09:40:46.417Z,1483.00
2022-12-08T09:41:48.282Z,1266.00
2022-12-08T09:42:46.230Z,1908.00
2022-12-08T09:43:46.289Z,2442.00
2022-12-08T09:44:46.220Z,2664.00
2022-12-08T09:45:46.261Z,2745.00
2022-12-08T09:46:46.247Z,2650.00
2022-12-08T09:47:46.190Z,2797.00
2022-12-08T09:48:46.198Z,2685.00
2022-12-08T09:49:46.182Z,2675.00
2022-12-08T09:50:46.169Z,2605.00
2022-12-08T09:51:46.149Z,2727.00
2022-12-08T09:52:46.128Z,2865.00
2022-12-08T09:53:46.126Z,2856.00
2022-12-08T09:54:46.108Z,2876.00
2022-12-08T09:55:46.127Z,2902.00
2022-12-08T09:56:46.147Z,2919.00
2022-12-08T09:57:46.117Z,2966.00
2022-12-08T09:58:46.067Z,2996.00
2022-12-08T09:59:46.057Z,3060.00
2022-12-08T10:00:46.081Z,3111.00
2022-12-08T10:01:46.130Z,3104.00
2022-12-08T10:02:46.037Z,3202.00
2022-12-08T10:03:46.037Z,3200.00
2022-12-08T10:04:46.050Z,3222.00
2022-12-08T10:05:46.037Z,3236.00
2022-12-08T10:06:46.007Z,3245.00
2022-12-08T10:07:46.025Z,3240.00
2022-12-08T10:08:45.965Z,3231.00
2022-12-08T10:09:45.975Z,3207.00
2022-12-08T10:10:45.939Z,3221.00
2022-12-08T10:11:45.937Z,3115.00
2022-12-08T10:12:45.933Z,3260.00
2022-12-08T10:13:45.907Z,3325.00
2022-12-08T10:14:45.906Z,3338.00
2022-12-08T10:15:45.959Z,3404.00
2022-12-08T10:16:46.036Z,3264.00
2022-12-08T10:17:45.917Z,3531.00
2022-12-08T10:18:45.857Z,3484.00
2022-12-08T10:19:45.843Z,3543.00
2022-12-08T10:20:45.834Z,3438.00
2022-12-08T10:21:45.847Z,3464.00
2022-12-08T10:22:45.823Z,3198.00
2022-12-08T10:23:45.861Z,3590.00
2022-12-08T10:24:45.812Z,3712.00
2022-12-08T10:25:45.797Z,3651.00
2022-12-08T10:26:45.817Z,3453.00
2022-12-08T10:27:45.753Z,3597.00
2022-12-08T10:28:45.939Z,3685.00
2022-12-08T10:29:45.734Z,3360.00
2022-12-08T10:30:45.792Z,3684.00
2022-12-08T10:31:45.753Z,3190.00
2022-12-08T10:32:45.703Z,3607.00
2022-12-08T10:33:45.693Z,3216.00
2022-12-08T10:34:45.687Z,3494.00
2022-12-08T10:35:45.672Z,3565.00
2022-12-08T10:36:45.674Z,2720.00
2022-12-08T10:37:45.654Z,2807.00
2022-12-08T10:38:45.730Z,3589.00
2022-12-08T10:39:45.660Z,3683.00
2022-12-08T10:40:45.971Z,3023.00
2022-12-08T10:41:45.652Z,2966.00
2022-12-08T10:42:45.599Z,3290.00
2022-12-08T10:43:45.582Z,3056.00
2022-12-08T10:44:45.572Z,3033.00
2022-12-08T10:45:45.604Z,2904.00
2022-12-08T10:46:45.647Z,2613.00
2022-12-08T10:47:47.865Z,2722.00
2022-12-08T10:48:46.529Z,3275.00
2022-12-08T10:49:45.533Z,3017.00
2022-12-08T10:50:45.525Z,2839.00
2022-12-08T10:51:45.533Z,2647.00
2022-12-08T10:52:45.543Z,2503.00
2022-12-08T10:53:45.471Z,2336.00
2022-12-08T10:54:45.470Z,2083.00
2022-12-08T10:55:45.438Z,2045.00
2022-12-08T10:56:45.471Z,2202.00
2022-12-08T10:57:45.440Z,2200.00
2022-12-08T10:58:45.449Z,2120.00
2022-12-08T10:59:45.405Z,2127.00
2022-12-08T11:00:45.515Z,1906.00
2022-12-08T11:01:45.536Z,1912.00
2022-12-08T11:02:45.447Z,2289.00
2022-12-08T11:03:45.364Z,1970.00
2022-12-08T11:04:45.355Z,1842.00
2022-12-08T11:05:45.339Z,1679.00
2022-12-08T11:06:45.326Z,2185.00
2022-12-08T11:07:45.340Z,2107.00
2022-12-08T11:08:45.305Z,2181.00
2022-12-08T11:09:45.287Z,2355.00
2022-12-08T11:10:45.307Z,2895.00
2022-12-08T11:11:45.270Z,2521.00
2022-12-08T11:12:45.258Z,2325.00
2022-12-08T11:13:45.757Z,2143.00
2022-12-08T11:14:45.247Z,2262.00
2022-12-08T11:15:45.227Z,3162.00
2022-12-08T11:16:45.287Z,3450.00
2022-12-08T11:17:45.218Z,3309.00
2022-12-08T11:18:45.197Z,2864.00
2022-12-08T11:19:45.190Z,2441.00
2022-12-08T11:20:45.204Z,2155.00
2022-12-08T11:21:45.167Z,2411.00
2022-12-08T11:22:45.179Z,2375.00
2022-12-08T11:23:45.147Z,2449.00
2022-12-08T11:24:45.132Z,3156.00
2022-12-08T11:25:45.114Z,3608.00
2022-12-08T11:26:45.109Z,3846.00
2022-12-08T11:27:45.104Z,3856.00
2022-12-08T11:28:45.093Z,3680.00
2022-12-08T11:29:45.075Z,3182.00
2022-12-08T11:30:45.073Z,3337.00
2022-12-08T11:31:45.084Z,3855.00
2022-12-08T11:32:45.056Z,4190.00
2022-12-08T11:33:45.054Z,4267.00
2022-12-08T11:34:45.035Z,4121.00
2022-12-08T11:35:45.003Z,4124.00
2022-12-08T11:36:45.002Z,3869.00
2022-12-08T11:37:45.004Z,3714.00
2022-12-08T11:38:44.994Z,4026.00
2022-12-08T11:39:44.964Z,3969.00
2022-12-08T11:40:44.953Z,4020.00
2022-12-08T11:41:44.933Z,4036.00
2022-12-08T11:42:44.944Z,4008.00
2022-12-08T11:43:44.922Z,3796.00
2022-12-08T11:44:44.913Z,3872.00
2022-12-08T11:45:44.909Z,3849.00
2022-12-08T11:46:44.903Z,3719.00
2022-12-08T11:47:44.882Z,3460.00
2022-12-08T11:48:44.866Z,3146.00
2022-12-08T11:49:44.844Z,3240.00
2022-12-08T11:50:44.885Z,3137.00
2022-12-08T11:51:44.836Z,2994.00
2022-12-08T11:52:44.831Z,3278.00
2022-12-08T11:53:44.802Z,3349.00
2022-12-08T11:54:44.802Z,3271.00
2022-12-08T11:55:49.699Z,3296.00
2022-12-08T11:56:45.780Z,3212.00
2022-12-08T11:57:44.807Z,2750.00
2022-12-08T11:58:44.762Z,2963.00
2022-12-08T11:59:44.740Z,3012.00
2022-12-08T12:00:44.770Z,3058.00
2022-12-08T12:01:44.768Z,3197.00
2022-12-08T12:02:44.856Z,3126.00
2022-12-08T12:03:44.777Z,3400.00
2022-12-08T12:04:44.699Z,3529.00
2022-12-08T12:06:09.261Z,3462.00
2022-12-08T12:06:54.868Z,3296.00
2022-12-08T12:07:45.781Z,3258.00
2022-12-08T12:08:44.659Z,3351.00
2022-12-08T12:09:44.630Z,3435.00
2022-12-08T12:10:44.639Z,3237.00
2022-12-08T12:11:44.610Z,3067.00
2022-12-08T12:12:44.618Z,3161.00
2022-12-08T12:13:44.590Z,3181.00
2022-12-08T12:14:44.644Z,3172.00
2022-12-08T12:15:44.559Z,3166.00
2022-12-08T12:16:44.669Z,3282.00
2022-12-08T12:17:44.563Z,3495.00
2022-12-08T12:18:44.543Z,3449.00
2022-12-08T12:19:44.570Z,3080.00
2022-12-08T12:20:44.518Z,2683.00
2022-12-08T12:21:44.499Z,2741.00
2022-12-08T12:22:44.490Z,3131.00
2022-12-08T12:23:44.488Z,3408.00
2022-12-08T12:24:44.545Z,3326.00
2022-12-08T12:25:44.459Z,3437.00
2022-12-08T12:26:44.537Z,3450.00
2022-12-08T12:27:44.448Z,3377.00
2022-12-08T12:28:44.455Z,3153.00
2022-12-08T12:29:44.420Z,2856.00
2022-12-08T12:30:44.448Z,2679.00
2022-12-08T12:31:44.387Z,2451.00
2022-12-08T12:32:44.450Z,2289.00
2022-12-08T12:33:44.392Z,2186.00
2022-12-08T12:34:44.364Z,2565.00
2022-12-08T12:35:44.350Z,3226.00
2022-12-08T12:36:44.341Z,3439.00
2022-12-08T12:37:44.360Z,3199.00
2022-12-08T12:38:44.325Z,3264.00
2022-12-08T12:39:44.323Z,3252.00
2022-12-08T12:40:44.310Z,3185.00
2022-12-08T12:41:44.289Z,3262.00
2022-12-08T12:42:44.314Z,3468.00
2022-12-08T12:43:44.285Z,3729.00
2022-12-08T12:44:44.613Z,3807.00
2022-12-08T12:45:44.257Z,3782.00
2022-12-08T12:46:44.246Z,3735.00
2022-12-08T12:47:44.215Z,3681.00